x

Buzzards Bay, Ma (buzm3) Weather Station

9:00am - Fri 23rd Jun 2017 All times are EDT. -4 hours from GMT.

  • Wind
    20mph, 21mph gusts
  • Air Temp 65°f
  • Sea Pressure 1010.7mb
  • Buzzards Bay, Ma
  • Buzzards Bay, Ma

More Historic Weather Station data

Upgrade to MSW Pro to gain access to the past 30 days of data for over 8000 Wavebouys and Weather Stations around the globe.

Join Pro

Comparision Forecast

View Surf forecast
   
Fri 06/23 9:00am 20 21 mph 1010.7mb 65f
8:00am 14 15 mph 1010.9mb 64f
7:00am 15 16 mph 1010.8mb 65f
6:00am 13 14 mph 1011.1mb 64f
5:00am 16 17 mph 1010.9mb 64f
4:00am 16 17 mph 1010.8mb 65f
3:00am 15 16 mph 1011.4mb 64f
2:00am 10 10 mph 1012.3mb 64f
1:00am 10 11 mph 1012.9mb 65f
12:00am 13 13 mph 1014mb 65f
Thu 06/22 11:00pm 14 14 mph 1013.8mb 65f
10:00pm 15 15 mph 1013.9mb 65f
9:00pm 14 14 mph 1013.7mb 65f
8:00pm 21 22 mph 1013.3mb 66f
7:00pm 24 25 mph 1013.2mb 66f
6:00pm 21 22 mph 1013.5mb 66f
5:00pm 22 23 mph 1013.5mb 65f
4:00pm 21 22 mph 1013.7mb 66f
3:00pm 11 13 mph 1014.1mb 65f
2:00pm 11 11 mph 1014.9mb 64f
1:00pm 10 11 mph 1015.2mb 64f
12:00pm 14 15 mph 1015.3mb 63f
11:00am 7 7 mph 1015.3mb 67f
10:00am 9 9 mph 1016.1mb 65f
9:00am 8 9 mph 1016.4mb 65f
8:00am 10 10 mph 1016.1mb 66f
7:00am 9 10 mph 1015.8mb 64f
6:00am 17 17 mph 1015mb 68f
5:00am 10 11 mph 1014.6mb 65f
4:00am 11 11 mph 1014.1mb 68f
3:00am 10 11 mph 1013.9mb 67f
2:00am 11 11 mph 1013.8mb 68f
1:00am 15 15 mph 1013.7mb 68f
12:00am 11 11 mph 1013.5mb 64f
Wed 06/21 11:00pm 18 18 mph 1012.8mb 65f
10:00pm 18 21 mph 1012.7mb 64f
9:00pm 21 22 mph 1012mb 67f
8:00pm 23 24 mph 1011.8mb 65f
7:00pm 26 29 mph 1010.7mb 64f
6:00pm 25 26 mph 1010.8mb 63f
5:00pm 28 30 mph 1010.7mb 62f
4:00pm 24 26 mph 1010.8mb 62f
3:00pm 28 31 mph 1010.9mb 62f
2:00pm 25 29 mph 1011.6mb 63f
1:00pm 24 25 mph 1011.9mb 63f
12:00pm 20 21 mph 1012.3mb 63f
11:00am 20 21 mph 1012.8mb 63f
10:00am 16 16 mph 1013mb 63f
9:00am 18 20 mph 1013.3mb 63f
8:00am 16 17 mph 1013.5mb 63f
7:00am 15 16 mph 1013.6mb 63f
6:00am 15 16 mph 1013.5mb 63f
5:00am 16 17 mph 1013.3mb 63f
4:00am 14 14 mph 1013.4mb 62f
3:00am 15 16 mph 1013.8mb 63f
2:00am 17 17 mph 1013.8mb 63f
1:00am 17 18 mph 1014.2mb 63f
12:00am 20 21 mph 1014.4mb 64f
Tue 06/20 11:00pm 22 23 mph 1014.3mb 64f
10:00pm 23 25 mph 1014mb 64f
9:00pm 25 26 mph 1013.5mb 65f
8:00pm 25 28 mph 1013mb 66f
7:00pm 25 26 mph 1012.5mb 65f
6:00pm 28 30 mph 1012.1mb 65f
5:00pm 29 31 mph 1012.1mb 66f
4:00pm 26 29 mph 1012mb 65f
3:00pm 26 29 mph 1011.9mb 64f
2:00pm 22 24 mph 1012.3mb 63f
1:00pm 24 25 mph 1012.6mb 63f
12:00pm 22 23 mph 1012.7mb 63f
11:00am 22 24 mph 1012.5mb 63f
10:00am 22 23 mph 1012.1mb 63f
9:00am 23 24 mph 1012.3mb 63f
8:00am 24 26 mph 1012.1mb 64f
7:00am 23 26 mph 1011.8mb 64f
6:00am 24 26 mph 1011.4mb 63f
5:00am 23 25 mph 1011.3mb 63f
4:00am 20 21 mph 1011.4mb 63f
3:00am 24 26 mph 1011.7mb 64f
2:00am 23 24 mph 1011.7mb 64f
1:00am 23 24 mph 1012.2mb 63f
12:00am 25 28 mph 1012.4mb 64f
Mon 06/19 11:00pm 33 37 mph 1012.8mb 65f
10:00pm 29 32 mph 1012.7mb 66f
9:00pm 25 29 mph 1012.6mb 65f
8:00pm 24 28 mph 1012.5mb 64f
7:00pm 26 29 mph 1012.2mb 64f
6:00pm 25 29 mph 1011.8mb 65f
5:00pm 23 26 mph 1012.2mb 64f
4:00pm 25 28 mph 1011.9mb 64f
3:00pm 28 30 mph 1012.2mb 64f